sensor_id;sensor_type;location;lat;lon;timestamp;P1;durP1;ratioP1;P2;durP2;ratioP2
80127;SDS011;69440;52.118;5.408;2024-03-23T00:53:53;16.83;;;6.57;;
80127;SDS011;69440;52.118;5.408;2024-03-23T00:56:29;18.77;;;5.78;;
80127;SDS011;69440;52.118;5.408;2024-03-23T00:58:57;15.70;;;5.95;;
80127;SDS011;69440;52.118;5.408;2024-03-23T01:01:23;20.38;;;5.80;;
80127;SDS011;69440;52.118;5.408;2024-03-23T01:03:48;17.52;;;5.50;;
80127;SDS011;69440;52.118;5.408;2024-03-23T01:06:14;12.07;;;5.40;;
80127;SDS011;69440;52.118;5.408;2024-03-23T01:08:39;18.95;;;5.40;;
80127;SDS011;69440;52.118;5.408;2024-03-23T01:11:05;17.52;;;5.78;;
80127;SDS011;69440;52.118;5.408;2024-03-23T01:13:31;18.42;;;5.65;;
80127;SDS011;69440;52.118;5.408;2024-03-23T01:15:57;19.95;;;5.60;;
80127;SDS011;69440;52.118;5.408;2024-03-23T01:18:23;16.15;;;5.57;;
80127;SDS011;69440;52.118;5.408;2024-03-23T01:20:54;20.65;;;5.03;;
80127;SDS011;69440;52.118;5.408;2024-03-23T01:23:19;20.70;;;6.07;;
80127;SDS011;69440;52.118;5.408;2024-03-23T01:25:51;18.33;;;6.05;;
80127;SDS011;69440;52.118;5.408;2024-03-23T01:28:17;19.58;;;6.68;;
80127;SDS011;69440;52.118;5.408;2024-03-23T01:30:43;23.60;;;6.25;;
80127;SDS011;69440;52.118;5.408;2024-03-23T01:33:08;18.25;;;5.70;;
80127;SDS011;69440;52.118;5.408;2024-03-23T01:35:34;17.63;;;6.30;;
80127;SDS011;69440;52.118;5.408;2024-03-23T01:38:00;18.00;;;5.82;;
80127;SDS011;69440;52.118;5.408;2024-03-23T01:40:25;18.88;;;5.45;;
80127;SDS011;69440;52.118;5.408;2024-03-23T01:42:56;20.45;;;5.35;;
80127;SDS011;69440;52.118;5.408;2024-03-23T01:45:22;18.95;;;6.30;;
80127;SDS011;69440;52.118;5.408;2024-03-23T01:47:49;19.67;;;5.47;;
80127;SDS011;69440;52.118;5.408;2024-03-23T01:50:16;15.10;;;5.15;;
80127;SDS011;69440;52.118;5.408;2024-03-23T01:52:41;17.20;;;5.85;;
80127;SDS011;69440;52.118;5.408;2024-03-23T01:55:07;19.02;;;5.82;;
80127;SDS011;69440;52.118;5.408;2024-03-23T02:00:01;14.30;;;5.15;;
80127;SDS011;69440;52.118;5.408;2024-03-23T02:02:27;19.15;;;5.85;;
80127;SDS011;69440;52.118;5.408;2024-03-23T02:04:58;15.77;;;5.28;;
80127;SDS011;69440;52.118;5.408;2024-03-23T02:07:24;22.58;;;6.00;;
80127;SDS011;69440;52.118;5.408;2024-03-23T02:09:53;15.70;;;5.95;;
80127;SDS011;69440;52.118;5.408;2024-03-23T02:12:19;15.35;;;5.28;;
80127;SDS011;69440;52.118;5.408;2024-03-23T02:14:46;20.13;;;5.53;;
80127;SDS011;69440;52.118;5.408;2024-03-23T02:17:12;12.60;;;4.95;;
80127;SDS011;69440;52.118;5.408;2024-03-23T02:19:37;21.38;;;5.75;;
80127;SDS011;69440;52.118;5.408;2024-03-23T02:22:05;15.18;;;5.55;;
80127;SDS011;69440;52.118;5.408;2024-03-23T02:24:31;16.20;;;5.65;;
80127;SDS011;69440;52.118;5.408;2024-03-23T02:26:59;16.63;;;5.65;;
80127;SDS011;69440;52.118;5.408;2024-03-23T02:29:24;17.08;;;5.82;;
80127;SDS011;69440;52.118;5.408;2024-03-23T02:31:50;19.33;;;5.90;;
80127;SDS011;69440;52.118;5.408;2024-03-23T02:34:18;17.33;;;5.35;;
80127;SDS011;69440;52.118;5.408;2024-03-23T02:36:44;16.23;;;5.53;;
80127;SDS011;69440;52.118;5.408;2024-03-23T02:39:09;15.68;;;5.15;;
80127;SDS011;69440;52.118;5.408;2024-03-23T02:41:36;21.02;;;6.15;;
80127;SDS011;69440;52.118;5.408;2024-03-23T02:44:02;15.75;;;4.88;;
80127;SDS011;69440;52.118;5.408;2024-03-23T02:46:30;19.98;;;6.38;;
80127;SDS011;69440;52.118;5.408;2024-03-23T02:48:59;13.00;;;5.70;;
80127;SDS011;69440;52.118;5.408;2024-03-23T02:51:32;15.43;;;5.28;;
80127;SDS011;69440;52.118;5.408;2024-03-23T02:53:57;16.48;;;5.80;;
80127;SDS011;69440;52.118;5.408;2024-03-23T02:56:23;16.77;;;5.28;;
80127;SDS011;69440;52.118;5.408;2024-03-23T02:58:49;15.52;;;4.68;;
80127;SDS011;69440;52.118;5.408;2024-03-23T03:01:14;16.50;;;4.97;;
80127;SDS011;69440;52.118;5.408;2024-03-23T03:03:40;10.07;;;4.60;;
80127;SDS011;69440;52.118;5.408;2024-03-23T03:06:08;15.02;;;5.28;;
80127;SDS011;69440;52.118;5.408;2024-03-23T03:08:34;16.48;;;5.25;;
80127;SDS011;69440;52.118;5.408;2024-03-23T03:11:02;16.83;;;4.78;;
80127;SDS011;69440;52.118;5.408;2024-03-23T03:13:28;14.48;;;4.53;;
80127;SDS011;69440;52.118;5.408;2024-03-23T03:15:53;18.25;;;4.90;;
80127;SDS011;69440;52.118;5.408;2024-03-23T03:18:18;11.60;;;4.18;;
80127;SDS011;69440;52.118;5.408;2024-03-23T03:20:44;11.60;;;4.80;;
80127;SDS011;69440;52.118;5.408;2024-03-23T03:23:10;14.13;;;4.60;;
80127;SDS011;69440;52.118;5.408;2024-03-23T03:25:36;14.18;;;4.32;;
80127;SDS011;69440;52.118;5.408;2024-03-23T03:28:01;10.45;;;5.03;;
80127;SDS011;69440;52.118;5.408;2024-03-23T03:30:28;12.30;;;4.88;;
80127;SDS011;69440;52.118;5.408;2024-03-23T03:32:54;13.05;;;4.82;;
80127;SDS011;69440;52.118;5.408;2024-03-23T03:35:20;13.10;;;4.28;;
80127;SDS011;69440;52.118;5.408;2024-03-23T03:37:48;13.88;;;4.72;;
80127;SDS011;69440;52.118;5.408;2024-03-23T03:40:14;16.65;;;4.55;;
80127;SDS011;69440;52.118;5.408;2024-03-23T03:42:42;11.50;;;4.60;;
80127;SDS011;69440;52.118;5.408;2024-03-23T03:45:07;13.82;;;5.07;;
80127;SDS011;69440;52.118;5.408;2024-03-23T03:47:33;15.13;;;4.43;;
80127;SDS011;69440;52.118;5.408;2024-03-23T03:50:02;12.82;;;5.22;;
80127;SDS011;69440;52.118;5.408;2024-03-23T03:52:30;18.00;;;5.47;;
80127;SDS011;69440;52.118;5.408;2024-03-23T03:55:00;13.55;;;5.00;;
80127;SDS011;69440;52.118;5.408;2024-03-23T03:57:27;12.13;;;4.88;;
80127;SDS011;69440;52.118;5.408;2024-03-23T03:59:53;12.95;;;4.38;;
80127;SDS011;69440;52.118;5.408;2024-03-23T04:02:18;13.35;;;4.70;;
80127;SDS011;69440;52.118;5.408;2024-03-23T04:04:44;14.20;;;4.50;;
80127;SDS011;69440;52.118;5.408;2024-03-23T04:07:12;14.43;;;5.10;;
80127;SDS011;69440;52.118;5.408;2024-03-23T04:09:38;14.93;;;4.35;;
80127;SDS011;69440;52.118;5.408;2024-03-23T04:12:05;14.65;;;4.72;;
80127;SDS011;69440;52.118;5.408;2024-03-23T04:14:31;9.85;;;4.47;;
80127;SDS011;69440;52.118;5.408;2024-03-23T04:16:57;14.13;;;4.18;;
80127;SDS011;69440;52.118;5.408;2024-03-23T04:19:22;13.50;;;4.25;;
80127;SDS011;69440;52.118;5.408;2024-03-23T04:21:48;14.18;;;5.13;;
80127;SDS011;69440;52.118;5.408;2024-03-23T04:24:13;12.15;;;4.15;;
80127;SDS011;69440;52.118;5.408;2024-03-23T04:26:41;9.75;;;3.78;;
80127;SDS011;69440;52.118;5.408;2024-03-23T04:29:09;9.48;;;3.72;;
80127;SDS011;69440;52.118;5.408;2024-03-23T04:31:35;10.52;;;3.83;;
80127;SDS011;69440;52.118;5.408;2024-03-23T04:34:01;11.45;;;4.10;;
80127;SDS011;69440;52.118;5.408;2024-03-23T04:36:27;10.63;;;3.65;;
80127;SDS011;69440;52.118;5.408;2024-03-23T04:38:52;11.10;;;4.32;;
80127;SDS011;69440;52.118;5.408;2024-03-23T04:41:18;10.38;;;3.78;;
80127;SDS011;69440;52.118;5.408;2024-03-23T04:43:43;9.30;;;4.00;;
80127;SDS011;69440;52.118;5.408;2024-03-23T04:46:09;12.68;;;3.85;;
80127;SDS011;69440;52.118;5.408;2024-03-23T04:48:38;7.25;;;3.10;;
80127;SDS011;69440;52.118;5.408;2024-03-23T04:51:03;12.90;;;3.33;;
80127;SDS011;69440;52.118;5.408;2024-03-23T04:53:29;7.60;;;3.20;;
80127;SDS011;69440;52.118;5.408;2024-03-23T04:55:55;14.77;;;3.67;;
80127;SDS011;69440;52.118;5.408;2024-03-23T04:58:24;11.15;;;3.30;;
80127;SDS011;69440;52.118;5.408;2024-03-23T05:00:57;7.93;;;3.00;;
80127;SDS011;69440;52.118;5.408;2024-03-23T05:03:23;9.35;;;3.00;;
80127;SDS011;69440;52.118;5.408;2024-03-23T05:05:49;8.85;;;2.67;;
80127;SDS011;69440;52.118;5.408;2024-03-23T05:08:15;13.52;;;2.88;;
80127;SDS011;69440;52.118;5.408;2024-03-23T05:10:42;14.82;;;3.00;;
80127;SDS011;69440;52.118;5.408;2024-03-23T05:13:08;10.18;;;2.90;;
80127;SDS011;69440;52.118;5.408;2024-03-23T05:15:34;7.53;;;2.45;;
80127;SDS011;69440;52.118;5.408;2024-03-23T05:18:00;10.25;;;2.72;;
80127;SDS011;69440;52.118;5.408;2024-03-23T05:20:25;10.57;;;3.45;;
80127;SDS011;69440;52.118;5.408;2024-03-23T05:22:54;10.55;;;2.45;;
80127;SDS011;69440;52.118;5.408;2024-03-23T05:25:20;12.35;;;2.30;;
80127;SDS011;69440;52.118;5.408;2024-03-23T05:27:46;9.13;;;2.50;;
80127;SDS011;69440;52.118;5.408;2024-03-23T05:30:11;6.22;;;2.20;;
80127;SDS011;69440;52.118;5.408;2024-03-23T05:32:39;6.53;;;2.53;;
80127;SDS011;69440;52.118;5.408;2024-03-23T05:35:09;10.75;;;2.42;;
80127;SDS011;69440;52.118;5.408;2024-03-23T05:40:02;7.53;;;2.22;;
80127;SDS011;69440;52.118;5.408;2024-03-23T05:42:29;8.77;;;2.42;;
80127;SDS011;69440;52.118;5.408;2024-03-23T05:44:55;6.07;;;1.80;;
80127;SDS011;69440;52.118;5.408;2024-03-23T05:47:20;10.70;;;2.55;;
80127;SDS011;69440;52.118;5.408;2024-03-23T05:49:46;6.93;;;1.80;;
80127;SDS011;69440;52.118;5.408;2024-03-23T05:52:11;10.43;;;2.17;;
80127;SDS011;69440;52.118;5.408;2024-03-23T05:54:37;8.27;;;2.17;;
80127;SDS011;69440;52.118;5.408;2024-03-23T05:57:03;9.27;;;1.83;;
80127;SDS011;69440;52.118;5.408;2024-03-23T05:59:29;9.50;;;1.80;;
80127;SDS011;69440;52.118;5.408;2024-03-23T06:01:55;6.72;;;1.90;;
80127;SDS011;69440;52.118;5.408;2024-03-23T06:04:22;7.15;;;1.90;;
80127;SDS011;69440;52.118;5.408;2024-03-23T06:06:48;5.80;;;2.25;;
80127;SDS011;69440;52.118;5.408;2024-03-23T06:09:14;7.50;;;2.05;;
80127;SDS011;69440;52.118;5.408;2024-03-23T06:11:39;4.55;;;1.52;;
80127;SDS011;69440;52.118;5.408;2024-03-23T06:14:04;11.18;;;1.95;;
80127;SDS011;69440;52.118;5.408;2024-03-23T06:16:31;10.32;;;1.90;;
80127;SDS011;69440;52.118;5.408;2024-03-23T06:18:56;7.10;;;1.80;;
80127;SDS011;69440;52.118;5.408;2024-03-23T06:21:22;4.28;;;1.30;;
80127;SDS011;69440;52.118;5.408;2024-03-23T06:23:51;12.27;;;1.67;;
80127;SDS011;69440;52.118;5.408;2024-03-23T06:26:18;8.70;;;1.98;;
80127;SDS011;69440;52.118;5.408;2024-03-23T06:28:44;9.10;;;1.63;;
80127;SDS011;69440;52.118;5.408;2024-03-23T06:31:10;7.50;;;1.80;;
80127;SDS011;69440;52.118;5.408;2024-03-23T06:33:35;6.15;;;1.75;;
80127;SDS011;69440;52.118;5.408;2024-03-23T06:36:01;4.63;;;1.33;;
80127;SDS011;69440;52.118;5.408;2024-03-23T06:38:29;7.35;;;1.83;;
80127;SDS011;69440;52.118;5.408;2024-03-23T06:40:55;6.28;;;1.73;;
80127;SDS011;69440;52.118;5.408;2024-03-23T06:43:20;10.02;;;1.70;;
80127;SDS011;69440;52.118;5.408;2024-03-23T06:45:52;8.75;;;1.52;;
80127;SDS011;69440;52.118;5.408;2024-03-23T06:48:18;5.63;;;1.67;;
80127;SDS011;69440;52.118;5.408;2024-03-23T06:50:45;9.95;;;1.60;;
80127;SDS011;69440;52.118;5.408;2024-03-23T06:53:11;5.90;;;1.50;;
80127;SDS011;69440;52.118;5.408;2024-03-23T06:55:37;7.50;;;1.45;;
80127;SDS011;69440;52.118;5.408;2024-03-23T06:58:03;5.60;;;1.33;;
80127;SDS011;69440;52.118;5.408;2024-03-23T07:00:29;6.35;;;1.60;;
80127;SDS011;69440;52.118;5.408;2024-03-23T07:02:55;4.72;;;1.48;;
80127;SDS011;69440;52.118;5.408;2024-03-23T07:05:23;5.85;;;1.60;;
80127;SDS011;69440;52.118;5.408;2024-03-23T07:07:51;10.30;;;1.58;;
80127;SDS011;69440;52.118;5.408;2024-03-23T07:10:17;8.07;;;1.67;;
80127;SDS011;69440;52.118;5.408;2024-03-23T07:12:43;4.07;;;1.52;;
80127;SDS011;69440;52.118;5.408;2024-03-23T07:15:08;6.72;;;1.42;;
80127;SDS011;69440;52.118;5.408;2024-03-23T07:17:34;8.70;;;2.40;;
80127;SDS011;69440;52.118;5.408;2024-03-23T07:20:03;6.05;;;1.90;;
80127;SDS011;69440;52.118;5.408;2024-03-23T07:22:32;7.40;;;1.92;;
80127;SDS011;69440;52.118;5.408;2024-03-23T07:25:01;6.22;;;1.73;;
80127;SDS011;69440;52.118;5.408;2024-03-23T07:27:30;7.78;;;2.42;;
80127;SDS011;69440;52.118;5.408;2024-03-23T07:29:55;7.45;;;2.00;;
80127;SDS011;69440;52.118;5.408;2024-03-23T07:32:21;10.27;;;1.98;;
80127;SDS011;69440;52.118;5.408;2024-03-23T07:34:47;6.60;;;2.67;;
80127;SDS011;69440;52.118;5.408;2024-03-23T07:37:16;8.32;;;1.55;;
80127;SDS011;69440;52.118;5.408;2024-03-23T07:39:42;6.85;;;1.83;;
80127;SDS011;69440;52.118;5.408;2024-03-23T07:42:13;8.65;;;2.42;;
80127;SDS011;69440;52.118;5.408;2024-03-23T07:44:43;7.82;;;2.08;;
80127;SDS011;69440;52.118;5.408;2024-03-23T07:47:08;9.95;;;2.00;;
80127;SDS011;69440;52.118;5.408;2024-03-23T07:49:34;8.20;;;2.17;;
80127;SDS011;69440;52.118;5.408;2024-03-23T07:51:59;8.98;;;1.75;;
80127;SDS011;69440;52.118;5.408;2024-03-23T07:54:25;10.43;;;1.80;;
80127;SDS011;69440;52.118;5.408;2024-03-23T07:56:50;10.38;;;1.80;;
80127;SDS011;69440;52.118;5.408;2024-03-23T08:02:32;7.85;;;1.58;;
80127;SDS011;69440;52.118;5.408;2024-03-23T08:05:03;7.07;;;1.60;;
80127;SDS011;69440;52.118;5.408;2024-03-23T08:09:58;6.80;;;1.80;;
80127;SDS011;69440;52.118;5.408;2024-03-23T08:12:25;9.00;;;1.63;;
80127;SDS011;69440;52.118;5.408;2024-03-23T08:14:51;10.27;;;1.52;;
80127;SDS011;69440;52.118;5.408;2024-03-23T08:17:16;9.70;;;1.83;;
80127;SDS011;69440;52.118;5.408;2024-03-23T08:19:42;7.30;;;1.45;;
80127;SDS011;69440;52.118;5.408;2024-03-23T08:22:07;3.80;;;1.55;;
80127;SDS011;69440;52.118;5.408;2024-03-23T08:24:34;6.82;;;1.30;;
80127;SDS011;69440;52.118;5.408;2024-03-23T08:26:59;8.18;;;1.30;;
80127;SDS011;69440;52.118;5.408;2024-03-23T08:29:25;7.18;;;1.42;;
80127;SDS011;69440;52.118;5.408;2024-03-23T08:31:50;4.53;;;1.13;;
80127;SDS011;69440;52.118;5.408;2024-03-23T08:34:16;11.02;;;2.08;;
80127;SDS011;69440;52.118;5.408;2024-03-23T08:36:41;9.43;;;1.65;;
80127;SDS011;69440;52.118;5.408;2024-03-23T08:39:07;4.97;;;1.30;;
80127;SDS011;69440;52.118;5.408;2024-03-23T08:41:32;5.93;;;1.88;;
80127;SDS011;69440;52.118;5.408;2024-03-23T08:43:58;7.82;;;1.50;;
80127;SDS011;69440;52.118;5.408;2024-03-23T08:46:24;8.40;;;1.60;;
80127;SDS011;69440;52.118;5.408;2024-03-23T08:48:49;5.88;;;1.55;;
80127;SDS011;69440;52.118;5.408;2024-03-23T08:51:15;5.13;;;1.35;;
80127;SDS011;69440;52.118;5.408;2024-03-23T08:53:42;5.65;;;1.70;;
80127;SDS011;69440;52.118;5.408;2024-03-23T08:56:08;8.25;;;1.30;;
80127;SDS011;69440;52.118;5.408;2024-03-23T08:58:35;9.45;;;1.33;;
80127;SDS011;69440;52.118;5.408;2024-03-23T09:01:07;7.90;;;2.00;;
80127;SDS011;69440;52.118;5.408;2024-03-23T09:03:38;6.20;;;1.30;;
80127;SDS011;69440;52.118;5.408;2024-03-23T09:06:10;4.88;;;1.20;;
80127;SDS011;69440;52.118;5.408;2024-03-23T09:08:37;6.88;;;1.20;;
80127;SDS011;69440;52.118;5.408;2024-03-23T09:11:09;8.10;;;1.30;;
80127;SDS011;69440;52.118;5.408;2024-03-23T09:13:37;7.20;;;1.58;;
80127;SDS011;69440;52.118;5.408;2024-03-23T09:16:04;7.68;;;1.10;;
80127;SDS011;69440;52.118;5.408;2024-03-23T09:18:34;10.85;;;1.42;;
80127;SDS011;69440;52.118;5.408;2024-03-23T09:21:00;4.47;;;1.40;;
80127;SDS011;69440;52.118;5.408;2024-03-23T09:25:52;10.55;;;2.05;;
80127;SDS011;69440;52.118;5.408;2024-03-23T09:28:17;4.47;;;1.00;;
80127;SDS011;69440;52.118;5.408;2024-03-23T09:30:46;4.05;;;1.08;;
80127;SDS011;69440;52.118;5.408;2024-03-23T09:33:12;3.72;;;0.93;;
80127;SDS011;69440;52.118;5.408;2024-03-23T09:35:44;8.57;;;1.25;;
80127;SDS011;69440;52.118;5.408;2024-03-23T09:38:12;7.13;;;1.33;;
80127;SDS011;69440;52.118;5.408;2024-03-23T09:40:40;5.68;;;1.00;;
80127;SDS011;69440;52.118;5.408;2024-03-23T09:43:10;3.63;;;1.33;;
80127;SDS011;69440;52.118;5.408;2024-03-23T09:45:41;7.00;;;1.48;;
80127;SDS011;69440;52.118;5.408;2024-03-23T09:48:08;3.90;;;1.55;;
80127;SDS011;69440;52.118;5.408;2024-03-23T09:50:39;4.13;;;1.00;;
80127;SDS011;69440;52.118;5.408;2024-03-23T09:53:10;4.20;;;1.20;;
80127;SDS011;69440;52.118;5.408;2024-03-23T09:55:37;6.47;;;1.23;;
80127;SDS011;69440;52.118;5.408;2024-03-23T09:58:03;3.90;;;1.00;;
80127;SDS011;69440;52.118;5.408;2024-03-23T10:00:33;4.85;;;1.17;;
80127;SDS011;69440;52.118;5.408;2024-03-23T10:03:00;5.68;;;1.10;;
80127;SDS011;69440;52.118;5.408;2024-03-23T10:05:29;5.72;;;1.77;;
80127;SDS011;69440;52.118;5.408;2024-03-23T10:07:56;7.10;;;1.50;;
80127;SDS011;69440;52.118;5.408;2024-03-23T10:10:22;10.80;;;1.60;;
80127;SDS011;69440;52.118;5.408;2024-03-23T10:12:50;4.47;;;1.35;;
80127;SDS011;69440;52.118;5.408;2024-03-23T10:15:19;6.43;;;1.33;;
80127;SDS011;69440;52.118;5.408;2024-03-23T10:17:47;5.82;;;1.52;;
80127;SDS011;69440;52.118;5.408;2024-03-23T10:20:13;8.85;;;1.30;;
80127;SDS011;69440;52.118;5.408;2024-03-23T10:22:43;6.80;;;1.90;;
80127;SDS011;69440;52.118;5.408;2024-03-23T10:25:09;7.43;;;1.35;;
80127;SDS011;69440;52.118;5.408;2024-03-23T10:27:36;5.10;;;1.25;;
80127;SDS011;69440;52.118;5.408;2024-03-23T10:30:14;5.22;;;1.05;;
80127;SDS011;69440;52.118;5.408;2024-03-23T10:32:41;9.70;;;1.38;;
80127;SDS011;69440;52.118;5.408;2024-03-23T10:35:19;7.55;;;2.13;;
80127;SDS011;69440;52.118;5.408;2024-03-23T10:37:47;7.25;;;1.30;;
80127;SDS011;69440;52.118;5.408;2024-03-23T10:40:16;7.43;;;1.90;;
80127;SDS011;69440;52.118;5.408;2024-03-23T10:42:44;8.48;;;1.60;;
80127;SDS011;69440;52.118;5.408;2024-03-23T10:45:10;3.80;;;0.93;;
80127;SDS011;69440;52.118;5.408;2024-03-23T10:47:36;5.85;;;1.10;;
80127;SDS011;69440;52.118;5.408;2024-03-23T10:50:05;5.60;;;1.15;;
80127;SDS011;69440;52.118;5.408;2024-03-23T10:52:34;5.07;;;1.20;;
80127;SDS011;69440;52.118;5.408;2024-03-23T10:55:02;5.90;;;0.90;;
80127;SDS011;69440;52.118;5.408;2024-03-23T10:57:40;5.18;;;0.82;;
80127;SDS011;69440;52.118;5.408;2024-03-23T11:00:09;5.90;;;1.00;;
80127;SDS011;69440;52.118;5.408;2024-03-23T11:02:36;3.38;;;0.82;;
80127;SDS011;69440;52.118;5.408;2024-03-23T11:05:01;3.00;;;0.88;;
80127;SDS011;69440;52.118;5.408;2024-03-23T11:09:54;4.80;;;1.08;;
80127;SDS011;69440;52.118;5.408;2024-03-23T11:14:55;6.97;;;1.52;;
80127;SDS011;69440;52.118;5.408;2024-03-23T11:17:24;5.47;;;1.10;;
80127;SDS011;69440;52.118;5.408;2024-03-23T11:25:23;6.10;;;1.10;;
80127;SDS011;69440;52.118;5.408;2024-03-23T11:27:49;7.93;;;1.10;;
80127;SDS011;69440;52.118;5.408;2024-03-23T11:30:20;6.43;;;1.42;;
80127;SDS011;69440;52.118;5.408;2024-03-23T11:32:48;7.28;;;1.20;;
80127;SDS011;69440;52.118;5.408;2024-03-23T11:35:30;7.45;;;1.38;;
80127;SDS011;69440;52.118;5.408;2024-03-23T11:38:07;5.88;;;1.20;;
80127;SDS011;69440;52.118;5.408;2024-03-23T11:43:13;6.65;;;1.33;;
80127;SDS011;69440;52.118;5.408;2024-03-23T11:45:49;10.90;;;1.23;;
80127;SDS011;69440;52.118;5.408;2024-03-23T11:48:21;4.15;;;1.08;;
80127;SDS011;69440;52.118;5.408;2024-03-23T11:50:51;10.18;;;1.77;;
80127;SDS011;69440;52.118;5.408;2024-03-23T11:53:23;9.85;;;1.50;;
80127;SDS011;69440;52.118;5.408;2024-03-23T11:55:55;6.03;;;1.30;;
80127;SDS011;69440;52.118;5.408;2024-03-23T11:58:22;7.00;;;1.52;;
80127;SDS011;69440;52.118;5.408;2024-03-23T12:00:49;5.38;;;1.10;;
80127;SDS011;69440;52.118;5.408;2024-03-23T12:03:27;5.32;;;1.20;;
80127;SDS011;69440;52.118;5.408;2024-03-23T12:05:54;7.22;;;1.60;;
80127;SDS011;69440;52.118;5.408;2024-03-23T12:10:47;7.65;;;1.33;;
80127;SDS011;69440;52.118;5.408;2024-03-23T12:13:14;6.03;;;1.33;;
80127;SDS011;69440;52.118;5.408;2024-03-23T12:15:42;5.55;;;1.10;;
80127;SDS011;69440;52.118;5.408;2024-03-23T12:18:08;5.68;;;1.42;;
80127;SDS011;69440;52.118;5.408;2024-03-23T12:20:34;5.32;;;1.45;;
80127;SDS011;69440;52.118;5.408;2024-03-23T12:23:06;7.03;;;1.40;;
80127;SDS011;69440;52.118;5.408;2024-03-23T12:25:38;6.10;;;1.20;;
80127;SDS011;69440;52.118;5.408;2024-03-23T12:28:05;5.18;;;1.17;;
80127;SDS011;69440;52.118;5.408;2024-03-23T12:30:32;4.65;;;1.60;;
80127;SDS011;69440;52.118;5.408;2024-03-23T12:33:04;5.90;;;1.45;;
80127;SDS011;69440;52.118;5.408;2024-03-23T12:35:31;5.70;;;1.52;;
80127;SDS011;69440;52.118;5.408;2024-03-23T12:37:57;5.57;;;1.45;;
80127;SDS011;69440;52.118;5.408;2024-03-23T12:40:23;6.63;;;1.67;;
80127;SDS011;69440;52.118;5.408;2024-03-23T12:42:48;6.82;;;1.38;;
80127;SDS011;69440;52.118;5.408;2024-03-23T12:45:14;5.03;;;1.30;;
80127;SDS011;69440;52.118;5.408;2024-03-23T12:47:40;3.92;;;1.48;;
80127;SDS011;69440;52.118;5.408;2024-03-23T12:50:05;9.98;;;1.42;;
80127;SDS011;69440;52.118;5.408;2024-03-23T12:52:35;6.93;;;1.40;;
80127;SDS011;69440;52.118;5.408;2024-03-23T12:55:01;5.55;;;1.25;;
80127;SDS011;69440;52.118;5.408;2024-03-23T12:57:26;4.13;;;1.17;;
80127;SDS011;69440;52.118;5.408;2024-03-23T12:59:52;5.63;;;1.30;;
80127;SDS011;69440;52.118;5.408;2024-03-23T13:02:21;5.35;;;1.15;;
80127;SDS011;69440;52.118;5.408;2024-03-23T13:04:50;7.55;;;1.20;;
80127;SDS011;69440;52.118;5.408;2024-03-23T13:07:17;5.90;;;1.20;;
80127;SDS011;69440;52.118;5.408;2024-03-23T13:09:45;5.05;;;1.33;;
80127;SDS011;69440;52.118;5.408;2024-03-23T13:12:10;5.50;;;1.10;;
80127;SDS011;69440;52.118;5.408;2024-03-23T13:14:39;7.47;;;1.40;;
80127;SDS011;69440;52.118;5.408;2024-03-23T13:17:05;2.90;;;1.20;;
80127;SDS011;69440;52.118;5.408;2024-03-23T13:19:33;5.55;;;1.40;;
80127;SDS011;69440;52.118;5.408;2024-03-23T13:21:59;7.22;;;1.15;;
80127;SDS011;69440;52.118;5.408;2024-03-23T13:24:26;4.40;;;1.08;;
80127;SDS011;69440;52.118;5.408;2024-03-23T13:26:53;2.45;;;0.75;;
80127;SDS011;69440;52.118;5.408;2024-03-23T13:29:20;2.22;;;0.70;;
80127;SDS011;69440;52.118;5.408;2024-03-23T13:31:46;2.70;;;0.60;;
80127;SDS011;69440;52.118;5.408;2024-03-23T13:34:12;2.38;;;0.50;;
80127;SDS011;69440;52.118;5.408;2024-03-23T13:36:43;2.10;;;0.57;;
80127;SDS011;69440;52.118;5.408;2024-03-23T13:39:10;3.65;;;0.60;;
80127;SDS011;69440;52.118;5.408;2024-03-23T13:41:45;1.13;;;0.50;;
80127;SDS011;69440;52.118;5.408;2024-03-23T13:44:12;3.15;;;0.77;;
80127;SDS011;69440;52.118;5.408;2024-03-23T13:46:38;1.08;;;0.40;;
80127;SDS011;69440;52.118;5.408;2024-03-23T13:49:05;2.92;;;0.68;;
80127;SDS011;69440;52.118;5.408;2024-03-23T13:51:31;5.63;;;1.67;;
80127;SDS011;69440;52.118;5.408;2024-03-23T13:53:57;3.80;;;1.00;;
80127;SDS011;69440;52.118;5.408;2024-03-23T13:56:26;6.57;;;1.15;;
80127;SDS011;69440;52.118;5.408;2024-03-23T13:58:53;6.53;;;1.20;;
80127;SDS011;69440;52.118;5.408;2024-03-23T14:01:20;5.10;;;1.02;;
80127;SDS011;69440;52.118;5.408;2024-03-23T14:03:46;3.75;;;1.20;;
80127;SDS011;69440;52.118;5.408;2024-03-23T14:06:11;6.28;;;1.30;;
80127;SDS011;69440;52.118;5.408;2024-03-23T14:08:37;3.92;;;0.90;;
80127;SDS011;69440;52.118;5.408;2024-03-23T14:11:07;5.25;;;1.10;;
80127;SDS011;69440;52.118;5.408;2024-03-23T14:13:36;4.07;;;0.80;;
80127;SDS011;69440;52.118;5.408;2024-03-23T14:16:02;6.72;;;1.10;;
80127;SDS011;69440;52.118;5.408;2024-03-23T14:18:29;5.68;;;1.08;;
80127;SDS011;69440;52.118;5.408;2024-03-23T14:20:58;7.95;;;1.50;;
80127;SDS011;69440;52.118;5.408;2024-03-23T14:23:26;4.85;;;1.33;;
80127;SDS011;69440;52.118;5.408;2024-03-23T14:25:58;5.32;;;1.00;;
80127;SDS011;69440;52.118;5.408;2024-03-23T14:28:24;3.78;;;1.40;;
80127;SDS011;69440;52.118;5.408;2024-03-23T14:30:50;6.50;;;1.42;;
80127;SDS011;69440;52.118;5.408;2024-03-23T14:33:16;4.47;;;1.10;;
80127;SDS011;69440;52.118;5.408;2024-03-23T14:35:43;7.05;;;2.60;;
80127;SDS011;69440;52.118;5.408;2024-03-23T14:38:09;6.45;;;1.27;;
80127;SDS011;69440;52.118;5.408;2024-03-23T14:40:35;7.18;;;1.35;;
80127;SDS011;69440;52.118;5.408;2024-03-23T14:43:01;6.35;;;1.20;;
80127;SDS011;69440;52.118;5.408;2024-03-23T14:45:27;8.02;;;1.45;;
80127;SDS011;69440;52.118;5.408;2024-03-23T14:47:53;6.32;;;1.20;;
80127;SDS011;69440;52.118;5.408;2024-03-23T14:50:18;5.07;;;1.20;;
80127;SDS011;69440;52.118;5.408;2024-03-23T14:52:44;8.27;;;1.60;;
80127;SDS011;69440;52.118;5.408;2024-03-23T14:55:11;4.82;;;0.70;;
80127;SDS011;69440;52.118;5.408;2024-03-23T14:57:37;4.30;;;1.05;;
80127;SDS011;69440;52.118;5.408;2024-03-23T15:00:05;5.65;;;0.90;;
80127;SDS011;69440;52.118;5.408;2024-03-23T15:02:32;4.25;;;0.70;;
80127;SDS011;69440;52.118;5.408;2024-03-23T15:07:24;4.20;;;1.08;;
80127;SDS011;69440;52.118;5.408;2024-03-23T15:09:50;3.83;;;1.00;;
80127;SDS011;69440;52.118;5.408;2024-03-23T15:12:15;5.43;;;1.25;;
80127;SDS011;69440;52.118;5.408;2024-03-23T15:14:41;2.58;;;0.90;;
80127;SDS011;69440;52.118;5.408;2024-03-23T15:17:06;3.78;;;1.08;;
80127;SDS011;69440;52.118;5.408;2024-03-23T15:19:34;5.07;;;1.00;;
80127;SDS011;69440;52.118;5.408;2024-03-23T15:21:59;2.45;;;0.73;;
80127;SDS011;69440;52.118;5.408;2024-03-23T15:24:25;5.10;;;1.20;;
80127;SDS011;69440;52.118;5.408;2024-03-23T15:26:54;3.92;;;1.00;;
80127;SDS011;69440;52.118;5.408;2024-03-23T15:29:20;4.25;;;1.30;;
80127;SDS011;69440;52.118;5.408;2024-03-23T15:31:47;4.18;;;1.67;;
80127;SDS011;69440;52.118;5.408;2024-03-23T15:34:16;4.47;;;0.98;;
80127;SDS011;69440;52.118;5.408;2024-03-23T15:36:41;3.40;;;1.25;;
80127;SDS011;69440;52.118;5.408;2024-03-23T15:39:07;2.97;;;1.02;;
80127;SDS011;69440;52.118;5.408;2024-03-23T15:41:32;3.65;;;1.10;;
80127;SDS011;69440;52.118;5.408;2024-03-23T15:44:00;5.47;;;0.98;;
80127;SDS011;69440;52.118;5.408;2024-03-23T15:46:26;5.22;;;1.10;;
80127;SDS011;69440;52.118;5.408;2024-03-23T15:48:52;6.35;;;1.52;;
80127;SDS011;69440;52.118;5.408;2024-03-23T15:51:17;12.93;;;3.08;;
80127;SDS011;69440;52.118;5.408;2024-03-23T15:53:43;6.03;;;1.50;;
80127;SDS011;69440;52.118;5.408;2024-03-23T15:56:09;4.32;;;1.05;;
80127;SDS011;69440;52.118;5.408;2024-03-23T15:58:34;4.82;;;1.10;;
80127;SDS011;69440;52.118;5.408;2024-03-23T16:01:04;5.78;;;1.23;;
80127;SDS011;69440;52.118;5.408;2024-03-23T16:03:31;3.28;;;0.95;;
80127;SDS011;69440;52.118;5.408;2024-03-23T16:06:07;3.95;;;1.15;;